Time;durP1;ratioP1;P1;durP2;ratioP2;P2;SDS_P1;SDS_P2;PMS_P1;PMS_P2;Temp;Humidity;BMP_temperature;BMP_pressure;BME280_temperature;BME280_humidity;BME280_pressure;Samples;Min_cycle;Max_cycle;Signal;HPM_P1;HPM_P2
2021/12/19 00:09:34;;;;;;;17.92;9.38;;;1.10;99.90;;;;;;5052727;28;20276;-78
2021/12/19 00:12:00;;;;;;;18.00;9.55;;;1.00;99.90;;;;;;5052735;28;20563;-78
2021/12/19 00:14:26;;;;;;;16.55;9.63;;;1.00;99.90;;;;;;5052900;28;20161;-78
2021/12/19 00:16:54;;;;;;;22.30;9.73;;;0.90;99.90;;;;;;5052535;28;20157;-75
2021/12/19 00:19:20;;;;;;;16.50;9.50;;;0.90;99.90;;;;;;5052353;28;20154;-76
2021/12/19 00:21:47;;;;;;;14.82;9.23;;;0.70;99.90;;;;;;5052389;28;20243;-75
2021/12/19 00:24:13;;;;;;;19.00;8.98;;;0.70;99.90;;;;;;5052386;28;20215;-76
2021/12/19 00:26:40;;;;;;;17.90;9.43;;;0.70;99.90;;;;;;5052441;28;20161;-76
2021/12/19 00:29:06;;;;;;;14.90;8.85;;;0.60;99.90;;;;;;5061748;28;20205;-76
2021/12/19 00:31:33;;;;;;;18.88;8.60;;;0.60;99.90;;;;;;5050960;28;20197;-78
2021/12/19 00:34:00;;;;;;;18.40;8.75;;;0.60;99.90;;;;;;5052245;28;20173;-77
2021/12/19 00:36:26;;;;;;;19.40;9.35;;;0.50;99.90;;;;;;5052202;28;20230;-77
2021/12/19 00:38:52;;;;;;;16.60;9.93;;;0.40;99.90;;;;;;5051557;28;20168;-77
2021/12/19 00:41:19;;;;;;;21.17;9.30;;;0.30;99.90;;;;;;5051852;28;20197;-79
2021/12/19 00:43:53;;;;;;;16.15;9.95;;;0.30;99.90;;;;;;5050010;28;20264;-78
2021/12/19 00:46:19;;;;;;;18.58;9.15;;;0.20;99.90;;;;;;5049709;28;20153;-76
2021/12/19 00:48:48;;;;;;;20.30;9.13;;;0.10;99.90;;;;;;5051306;28;20239;-76
2021/12/19 00:51:22;;;;;;;17.25;8.93;;;0.10;99.90;;;;;;5051744;28;20248;-76
2021/12/19 00:53:50;;;;;;;14.50;8.27;;;0.00;99.90;;;;;;5051723;28;20217;-75
2021/12/19 00:56:16;;;;;;;18.20;8.35;;;-0.10;99.90;;;;;;5051762;28;20177;-75
2021/12/19 00:58:43;;;;;;;16.75;8.50;;;-0.10;99.90;;;;;;5048240;28;20218;-75
2021/12/19 01:01:12;;;;;;;15.18;7.65;;;-0.20;99.90;;;;;;5031742;28;20252;-75
2021/12/19 01:03:43;;;;;;;15.77;8.40;;;-0.10;99.90;;;;;;5031860;28;20250;-76
2021/12/19 01:06:09;;;;;;;20.05;9.43;;;-0.20;99.90;;;;;;5031465;28;20170;-78
2021/12/19 01:08:35;;;;;;;15.40;9.23;;;-0.30;99.90;;;;;;5033023;28;20220;-79
2021/12/19 01:11:03;;;;;;;15.60;9.32;;;-0.30;99.90;;;;;;5032639;28;20209;-79
2021/12/19 01:13:29;;;;;;;11.15;7.68;;;-0.30;99.90;;;;;;5033066;28;20164;-79
2021/12/19 01:15:57;;;;;;;14.85;7.80;;;-0.30;99.90;;;;;;5033448;28;20162;-77
2021/12/19 01:18:23;;;;;;;23.23;10.40;;;-0.40;99.90;;;;;;5031560;28;20161;-78
2021/12/19 01:20:50;;;;;;;18.67;9.40;;;-0.50;99.90;;;;;;5031379;28;20190;-79
2021/12/19 01:23:16;;;;;;;16.13;9.13;;;-0.50;99.90;;;;;;5031465;28;20158;-79
2021/12/19 01:25:42;;;;;;;21.15;8.20;;;-0.60;99.90;;;;;;5031384;28;20169;-78
2021/12/19 01:28:08;;;;;;;17.63;8.98;;;-0.70;99.90;;;;;;5031234;28;20229;-74
2021/12/19 01:30:35;;;;;;;14.30;7.88;;;-0.70;99.90;;;;;;5031314;28;20162;-75
2021/12/19 01:33:02;;;;;;;11.55;9.10;;;-0.80;99.90;;;;;;5013685;28;20166;-74
2021/12/19 01:35:27;;;;;;;20.63;8.98;;;-0.80;99.90;;;;;;5031414;28;20160;-75
2021/12/19 01:37:54;;;;;;;16.27;9.57;;;-0.80;99.90;;;;;;5031215;28;20157;-75
2021/12/19 01:40:21;;;;;;;17.10;8.80;;;-0.80;99.90;;;;;;5031172;28;20158;-75
2021/12/19 01:42:49;;;;;;;18.40;9.75;;;-0.80;99.90;;;;;;5013316;28;20208;-75
2021/12/19 01:45:28;;;;;;;19.73;10.00;;;-0.90;99.90;;;;;;5030948;28;20182;-75
2021/12/19 01:47:55;;;;;;;19.17;9.30;;;-1.00;99.90;;;;;;5030738;28;20659;-75
2021/12/19 01:50:22;;;;;;;18.65;10.13;;;-1.00;99.90;;;;;;5031035;28;20166;-75
2021/12/19 01:52:49;;;;;;;15.90;8.82;;;-1.10;99.90;;;;;;5031106;28;20154;-75
2021/12/19 01:55:16;;;;;;;15.20;9.38;;;-1.10;99.90;;;;;;5030851;28;20162;-75
2021/12/19 01:57:43;;;;;;;15.88;8.90;;;-1.10;99.90;;;;;;5030774;28;20150;-75
2021/12/19 02:00:19;;;;;;;16.20;9.38;;;-1.10;99.90;;;;;;5030679;28;20255;-75
2021/12/19 02:02:45;;;;;;;16.20;8.18;;;-1.10;99.90;;;;;;5030714;28;20185;-78
2021/12/19 02:05:11;;;;;;;16.40;9.73;;;-1.20;99.90;;;;;;5030655;28;20173;-77
2021/12/19 02:07:38;;;;;;;17.70;10.50;;;-1.10;99.90;;;;;;5012950;28;20162;-77
2021/12/19 02:10:04;;;;;;;19.77;11.07;;;-1.10;99.90;;;;;;5030541;28;20635;-77
2021/12/19 02:12:30;;;;;;;23.08;10.32;;;-1.20;99.90;;;;;;5013012;28;20205;-76
2021/12/19 02:14:56;;;;;;;21.60;10.13;;;-1.20;99.90;;;;;;5012734;28;20166;-77
2021/12/19 02:17:22;;;;;;;17.10;9.73;;;-1.20;99.90;;;;;;5029678;28;20527;-77
2021/12/19 02:19:50;;;;;;;21.70;10.27;;;-1.20;99.90;;;;;;5030457;28;20190;-77
2021/12/19 02:22:16;;;;;;;22.35;10.45;;;-1.20;99.90;;;;;;5030220;28;20198;-78
2021/12/19 02:24:42;;;;;;;22.05;10.10;;;-1.20;99.90;;;;;;5012599;28;20266;-77
2021/12/19 02:27:08;;;;;;;17.35;10.63;;;-1.20;99.90;;;;;;5030427;28;20171;-77
2021/12/19 02:29:34;;;;;;;22.85;9.88;;;-1.10;99.90;;;;;;5030563;28;20197;-76
2021/12/19 02:32:01;;;;;;;24.00;10.98;;;-1.10;99.90;;;;;;5012805;28;20268;-77
2021/12/19 02:34:31;;;;;;;20.05;9.98;;;-1.20;99.90;;;;;;5012649;28;20170;-76
2021/12/19 02:37:19;;;;;;;17.40;9.60;;;-1.20;99.90;;;;;;5030145;28;20155;-77
2021/12/19 02:48:16;;;;;;;20.08;9.32;;;-1.30;99.90;;;;;;5030007;28;20228;-77
2021/12/19 02:50:50;;;;;;;17.00;8.75;;;-1.30;99.90;;;;;;5029887;28;20216;-77
2021/12/19 02:53:25;;;;;;;15.07;9.27;;;-1.20;99.90;;;;;;5029834;28;20158;-77
2021/12/19 02:55:51;;;;;;;14.45;9.20;;;-1.30;99.90;;;;;;5029912;28;20162;-78
2021/12/19 02:58:17;;;;;;;16.30;9.45;;;-1.30;99.90;;;;;;5012170;28;20202;-78
2021/12/19 03:00:43;;;;;;;13.88;8.73;;;-1.30;99.90;;;;;;5029638;28;20698;-77
2021/12/19 03:03:09;;;;;;;14.05;7.85;;;-1.10;99.90;;;;;;5029835;28;20249;-77
2021/12/19 03:05:37;;;;;;;22.05;9.68;;;-1.10;99.90;;;;;;5029742;28;20201;-79
2021/12/19 03:08:04;;;;;;;15.00;7.90;;;-1.10;99.90;;;;;;5029539;28;20185;-78
2021/12/19 03:18:25;;;;;;;13.07;7.85;;;-1.10;99.90;;;;;;5029616;28;20217;-78
2021/12/19 03:20:51;;;;;;;22.52;8.52;;;-1.10;99.90;;;;;;5029433;28;20688;-78
2021/12/19 03:23:17;;;;;;;13.35;8.27;;;-1.20;99.90;;;;;;5029528;28;20221;-79
2021/12/19 03:25:44;;;;;;;16.08;8.20;;;-1.10;99.90;;;;;;5029341;28;20166;-78
2021/12/19 03:28:12;;;;;;;10.25;6.75;;;-1.20;99.90;;;;;;5027822;28;20198;-78
2021/12/19 03:30:40;;;;;;;14.75;8.65;;;-1.20;99.90;;;;;;5029364;28;20477;-78
2021/12/19 03:33:07;;;;;;;14.48;7.72;;;-1.20;99.90;;;;;;5029381;28;20245;-78
2021/12/19 03:35:33;;;;;;;11.93;7.07;;;-1.10;99.90;;;;;;5027906;28;20546;-78
2021/12/19 03:38:01;;;;;;;11.95;6.72;;;-1.00;99.90;;;;;;5029220;28;20182;-78
2021/12/19 03:40:39;;;;;;;12.70;7.05;;;-1.00;99.90;;;;;;5029321;28;20194;-79
2021/12/19 03:43:15;;;;;;;12.88;6.75;;;-0.90;99.90;;;;;;5029823;28;20619;-79
2021/12/19 03:45:43;;;;;;;14.07;8.30;;;-0.90;99.90;;;;;;5029482;28;20157;-79
2021/12/19 03:48:13;;;;;;;16.33;7.45;;;-0.90;99.90;;;;;;5028918;28;20332;-80
2021/12/19 03:50:44;;;;;;;12.43;6.57;;;-1.00;99.90;;;;;;5029063;28;20154;-80
2021/12/19 03:53:12;;;;;;;13.77;7.35;;;-1.00;99.90;;;;;;5029087;28;20162;-80
2021/12/19 03:55:38;;;;;;;13.40;7.25;;;-1.00;99.90;;;;;;5028774;28;20154;-80
2021/12/19 03:58:05;;;;;;;11.95;6.70;;;-1.10;99.90;;;;;;5029791;28;20227;-80
2021/12/19 04:00:31;;;;;;;16.52;8.77;;;-1.00;99.90;;;;;;5029116;28;20311;-78
2021/12/19 04:03:03;;;;;;;15.40;8.18;;;-1.20;99.90;;;;;;5030229;28;20225;-78
2021/12/19 04:05:30;;;;;;;12.70;7.45;;;-1.30;99.90;;;;;;5029359;28;20181;-78
2021/12/19 04:07:56;;;;;;;10.68;7.53;;;-1.30;99.90;;;;;;5030103;28;20597;-80
2021/12/19 04:10:23;;;;;;;14.32;7.88;;;-1.40;99.90;;;;;;5031298;28;20167;-80
2021/12/19 04:12:50;;;;;;;19.42;9.00;;;-1.50;99.90;;;;;;5013441;28;20178;-80
2021/12/19 04:15:17;;;;;;;13.00;8.02;;;-1.50;99.90;;;;;;5032400;28;20181;-79
2021/12/19 04:17:43;;;;;;;17.65;7.82;;;-1.50;99.90;;;;;;5013666;28;20190;-79
2021/12/19 04:20:15;;;;;;;21.13;10.38;;;-1.40;99.90;;;;;;5011533;28;20177;-78
2021/12/19 04:22:42;;;;;;;16.80;7.68;;;-1.50;99.90;;;;;;5029014;28;20190;-79
2021/12/19 04:25:09;;;;;;;17.30;9.07;;;-1.60;99.90;;;;;;5028828;28;20186;-78
2021/12/19 04:27:36;;;;;;;16.80;9.48;;;-1.60;99.90;;;;;;5028586;28;20177;-78
2021/12/19 04:30:05;;;;;;;15.00;8.93;;;-1.70;99.90;;;;;;5028850;28;20238;-79
2021/12/19 04:32:36;;;;;;;18.55;9.18;;;-1.70;99.90;;;;;;5028674;28;20194;-79
2021/12/19 04:35:03;;;;;;;11.23;7.40;;;-1.80;99.90;;;;;;5028921;28;20217;-78
2021/12/19 04:40:12;;;;;;;14.52;8.00;;;-1.90;99.90;;;;;;5029350;28;20181;-79
2021/12/19 04:51:00;;;;;;;17.92;9.52;;;-1.90;99.90;;;;;;5032389;28;20200;-78
2021/12/19 04:53:49;;;;;;;14.10;6.75;;;-1.90;99.90;;;;;;5032164;28;20646;-77
2021/12/19 05:15:24;;;;;;;11.75;7.10;;;-2.10;99.90;;;;;;5051603;28;20179;-79
2021/12/19 05:17:50;;;;;;;13.73;7.55;;;-1.90;99.90;;;;;;5051553;28;20154;-79
2021/12/19 05:20:21;;;;;;;12.23;8.00;;;-2.00;99.90;;;;;;5051577;28;20637;-80
2021/12/19 05:22:49;;;;;;;17.33;7.90;;;-2.00;99.90;;;;;;5051517;28;20193;-81
2021/12/19 05:25:19;;;;;;;14.45;7.88;;;-2.10;99.90;;;;;;5051366;28;20172;-80
2021/12/19 05:27:56;;;;;;;13.07;7.00;;;-2.00;99.90;;;;;;5051259;28;20165;-79
2021/12/19 05:30:26;;;;;;;12.32;7.35;;;-2.10;99.90;;;;;;5051253;28;20172;-78
2021/12/19 05:32:54;;;;;;;14.13;8.05;;;-2.20;99.90;;;;;;5051186;28;20157;-79
2021/12/19 05:35:42;;;;;;;13.60;7.95;;;-2.20;99.90;;;;;;5051242;28;20165;-79
2021/12/19 05:46:21;;;;;;;15.02;8.10;;;-2.30;99.90;;;;;;5051026;28;20188;-78
2021/12/19 05:48:47;;;;;;;15.85;6.85;;;-2.30;99.90;;;;;;5050857;28;20195;-78
2021/12/19 05:51:14;;;;;;;13.30;7.07;;;-2.40;99.90;;;;;;5050578;28;20189;-77
2021/12/19 05:53:40;;;;;;;13.98;6.82;;;-2.30;99.90;;;;;;5049596;28;20253;-76
2021/12/19 05:56:06;;;;;;;19.27;8.88;;;-2.20;99.90;;;;;;5049398;28;20173;-77
2021/12/19 05:58:32;;;;;;;14.05;7.15;;;-2.20;99.90;;;;;;5048775;28;20613;-78
2021/12/19 06:00:58;;;;;;;19.08;8.93;;;-2.30;99.90;;;;;;5030623;28;20197;-77
2021/12/19 06:03:25;;;;;;;16.10;8.48;;;-2.30;99.90;;;;;;5030688;28;20247;-77
2021/12/19 06:05:52;;;;;;;13.32;7.88;;;-2.20;99.90;;;;;;5030688;28;20164;-77
2021/12/19 06:08:18;;;;;;;15.15;7.03;;;-2.20;99.90;;;;;;5030706;28;20190;-77
2021/12/19 06:10:44;;;;;;;17.85;9.05;;;-2.20;99.90;;;;;;5030599;28;20197;-77
2021/12/19 06:13:10;;;;;;;10.32;7.03;;;-2.20;99.90;;;;;;5030544;28;20210;-78
2021/12/19 06:15:36;;;;;;;8.60;6.05;;;-2.10;99.90;;;;;;5030467;28;20178;-78
2021/12/19 06:18:03;;;;;;;12.85;7.45;;;-2.20;99.90;;;;;;5030513;28;20232;-77
2021/12/19 06:20:31;;;;;;;13.35;7.15;;;-2.20;99.90;;;;;;5013173;28;20182;-77
2021/12/19 06:22:59;;;;;;;13.82;7.28;;;-2.20;99.90;;;;;;5030593;28;20201;-76
2021/12/19 06:25:25;;;;;;;16.98;9.00;;;-2.20;99.90;;;;;;5030345;28;20185;-77
2021/12/19 06:27:54;;;;;;;17.70;9.27;;;-2.10;99.90;;;;;;5030454;28;20239;-77
2021/12/19 06:30:20;;;;;;;21.10;9.35;;;-2.10;99.90;;;;;;5030395;28;20241;-77
2021/12/19 06:32:46;;;;;;;17.83;9.15;;;-2.00;99.90;;;;;;5030301;28;20197;-78
2021/12/19 06:35:18;;;;;;;18.05;8.48;;;-2.00;99.90;;;;;;5031739;28;20166;-79
2021/12/19 06:37:48;;;;;;;17.17;8.68;;;-2.00;99.90;;;;;;5031458;28;20174;-78
2021/12/19 06:40:17;;;;;;;13.88;7.32;;;-2.00;99.90;;;;;;5030223;28;20241;-76
2021/12/19 06:42:44;;;;;;;13.52;7.55;;;-2.00;99.90;;;;;;5013368;28;20193;-77
2021/12/19 06:45:12;;;;;;;15.52;7.72;;;-2.00;99.90;;;;;;5031194;28;20170;-78
2021/12/19 06:47:38;;;;;;;14.50;8.15;;;-2.10;99.90;;;;;;5030310;28;20205;-81
2021/12/19 06:50:06;;;;;;;10.38;7.88;;;-2.10;99.90;;;;;;5031620;28;20467;-77
2021/12/19 06:52:32;;;;;;;19.77;9.65;;;-2.10;99.90;;;;;;5030117;28;20190;-80
2021/12/19 06:54:58;;;;;;;16.23;8.95;;;-2.10;99.90;;;;;;5030037;28;20178;-79
2021/12/19 06:57:23;;;;;;;18.55;8.77;;;-1.90;99.90;;;;;;5030108;28;20165;-80
2021/12/19 06:59:49;;;;;;;16.27;9.23;;;-2.00;99.90;;;;;;5029802;28;20289;-82
2021/12/19 07:02:16;;;;;;;19.42;9.52;;;-2.00;99.90;;;;;;5029546;28;20194;-80
2021/12/19 07:04:46;;;;;;;20.17;9.05;;;-2.00;99.90;;;;;;5029545;28;20158;-79
2021/12/19 07:07:12;;;;;;;16.63;9.13;;;-1.90;99.90;;;;;;5030025;28;20158;-79
2021/12/19 07:09:39;;;;;;;18.27;10.98;;;-1.90;99.90;;;;;;5029804;28;20197;-81
2021/12/19 07:12:06;;;;;;;15.80;9.20;;;-1.90;99.90;;;;;;5029542;28;20560;-82
2021/12/19 07:14:33;;;;;;;18.50;9.38;;;-1.90;99.90;;;;;;5029686;28;20174;-82
2021/12/19 07:16:59;;;;;;;15.60;8.88;;;-1.70;99.90;;;;;;5029641;28;20165;-81
2021/12/19 07:19:25;;;;;;;22.80;8.50;;;-1.60;99.90;;;;;;5029649;28;20162;-80
2021/12/19 07:21:51;;;;;;;16.25;7.57;;;-1.60;99.90;;;;;;5030246;28;20253;-80
2021/12/19 07:24:17;;;;;;;18.55;9.38;;;-1.50;99.90;;;;;;5029835;28;20225;-79
2021/12/19 07:26:44;;;;;;;16.55;7.93;;;-1.50;99.90;;;;;;5029343;28;20162;-80
2021/12/19 07:29:10;;;;;;;15.48;7.57;;;-1.40;99.90;;;;;;5030165;28;20217;-78
2021/12/19 07:31:38;;;;;;;16.70;8.32;;;-1.20;99.90;;;;;;5030023;28;20189;-79
2021/12/19 07:34:05;;;;;;;17.33;8.40;;;-1.10;99.90;;;;;;5029254;28;20194;-76
2021/12/19 07:36:54;;;;;;;14.77;9.20;;;-1.00;99.90;;;;;;5011270;28;20192;-76
2021/12/19 07:39:37;;;;;;;13.95;7.65;;;-0.90;99.90;;;;;;5028641;28;20208;-76
2021/12/19 07:42:06;;;;;;;20.30;9.10;;;-0.80;99.90;;;;;;5029040;28;20193;-76
2021/12/19 07:44:33;;;;;;;16.50;8.95;;;-0.40;99.90;;;;;;5028994;28;20257;-75
2021/12/19 07:46:59;;;;;;;18.42;8.40;;;-0.30;99.90;;;;;;5029245;28;20151;-76
2021/12/19 07:49:25;;;;;;;13.85;9.07;;;-0.20;99.90;;;;;;5011300;28;20194;-76
2021/12/19 07:51:51;;;;;;;15.52;8.23;;;-0.10;99.90;;;;;;5011473;28;20377;-77
2021/12/19 07:54:17;;;;;;;10.10;5.28;;;-0.10;99.90;;;;;;5028938;28;20169;-77
2021/12/19 07:56:43;;;;;;;10.45;5.72;;;0.10;99.90;;;;;;5028976;28;20581;-77
2021/12/19 07:59:09;;;;;;;10.32;6.35;;;0.40;99.90;;;;;;5028909;28;20567;-77
2021/12/19 08:01:35;;;;;;;16.17;9.20;;;1.20;99.90;;;;;;5028674;28;20205;-75
2021/12/19 08:04:01;;;;;;;21.45;12.48;;;3.20;99.90;;;;;;5028971;28;20646;-76
2021/12/19 08:06:27;;;;;;;20.33;12.82;;;3.50;99.90;;;;;;5028833;28;20158;-75
2021/12/19 08:08:55;;;;;;;19.85;12.30;;;3.60;99.90;;;;;;5028821;28;20249;-76
2021/12/19 08:11:40;;;;;;;12.45;7.60;;;4.70;99.90;;;;;;5028702;28;20265;-76
2021/12/19 08:14:08;;;;;;;11.02;6.65;;;5.80;99.90;;;;;;5011211;28;20201;-76
2021/12/19 08:16:34;;;;;;;6.38;4.20;;;8.50;99.90;;;;;;5031701;28;20154;-76
2021/12/19 08:19:00;;;;;;;4.88;3.33;;;8.70;99.90;;;;;;5032793;28;20200;-76
2021/12/19 08:21:26;;;;;;;9.85;4.10;;;7.80;99.90;;;;;;5014948;28;20202;-76
2021/12/19 08:23:52;;;;;;;4.45;2.78;;;8.90;99.90;;;;;;5015008;28;20593;-76
2021/12/19 08:26:19;;;;;;;7.53;3.45;;;10.30;99.90;;;;;;5032217;28;20237;-76
2021/12/19 08:28:45;;;;;;;6.70;2.95;;;11.10;99.90;;;;;;5032498;28;20186;-76
2021/12/19 08:31:13;;;;;;;6.03;3.97;;;11.30;99.90;;;;;;5032598;28;20196;-80
2021/12/19 08:33:39;;;;;;;4.60;3.40;;;11.40;99.90;;;;;;5029577;28;20171;-78
2021/12/19 08:36:05;;;;;;;5.97;3.22;;;10.00;99.90;;;;;;5001209;28;20189;-79
2021/12/19 08:38:31;;;;;;;4.18;3.05;;;10.60;99.90;;;;;;5032189;28;20243;-79
2021/12/19 08:40:59;;;;;;;6.63;3.47;;;10.90;99.90;;;;;;5024606;28;20412;-79
2021/12/19 08:43:25;;;;;;;9.77;3.30;;;11.00;99.90;;;;;;5012675;28;20273;-79
2021/12/19 08:45:51;;;;;;;3.65;2.35;;;10.80;99.90;;;;;;5011664;28;20247;-79
2021/12/19 08:48:18;;;;;;;4.20;2.90;;;11.60;99.90;;;;;;5011672;28;20186;-79
2021/12/19 08:50:45;;;;;;;4.53;3.80;;;12.00;99.90;;;;;;5012385;28;20239;-79
2021/12/19 08:53:11;;;;;;;5.07;2.90;;;11.00;99.90;;;;;;5012526;28;20535;-79
2021/12/19 08:55:38;;;;;;;6.28;3.05;;;11.20;99.90;;;;;;5012611;28;20194;-79
2021/12/19 08:58:04;;;;;;;6.97;3.20;;;11.40;99.90;;;;;;5012611;28;20226;-79
2021/12/19 09:00:30;;;;;;;6.07;3.30;;;11.30;99.90;;;;;;5012212;28;20222;-80
2021/12/19 09:02:57;;;;;;;4.55;3.05;;;11.80;99.90;;;;;;5013251;28;20186;-79
2021/12/19 09:05:28;;;;;;;4.97;3.22;;;12.40;99.90;;;;;;5013270;28;20182;-79
2021/12/19 09:07:55;;;;;;;7.55;3.50;;;12.80;99.90;;;;;;5013694;28;20185;-79
2021/12/19 09:10:22;;;;;;;8.88;4.50;;;13.20;99.90;;;;;;4995630;28;20179;-79
2021/12/19 09:12:48;;;;;;;7.65;4.75;;;12.80;99.90;;;;;;5013224;28;20527;-79
2021/12/19 09:15:14;;;;;;;6.70;4.47;;;12.70;99.90;;;;;;5013107;28;20155;-79
2021/12/19 09:17:40;;;;;;;5.80;3.53;;;13.10;99.90;;;;;;5012995;28;20163;-79
2021/12/19 09:20:09;;;;;;;7.28;4.20;;;13.00;99.90;;;;;;5013179;28;20166;-78
2021/12/19 09:22:35;;;;;;;5.38;3.80;;;12.90;99.90;;;;;;5012915;28;20177;-78
2021/12/19 09:25:03;;;;;;;6.00;4.07;;;13.40;99.90;;;;;;5012861;28;20195;-79
2021/12/19 09:27:29;;;;;;;4.68;3.40;;;14.00;99.90;;;;;;5011379;28;20155;-79
2021/12/19 09:29:55;;;;;;;4.50;3.28;;;14.00;99.90;;;;;;5011862;28;20209;-79
2021/12/19 09:32:21;;;;;;;5.25;3.88;;;14.80;99.90;;;;;;5011760;28;20213;-77
2021/12/19 09:34:47;;;;;;;9.48;4.75;;;14.40;99.90;;;;;;5011857;28;20275;-78
2021/12/19 09:37:15;;;;;;;5.45;4.60;;;14.30;99.90;;;;;;5012011;28;20171;-78
2021/12/19 09:39:42;;;;;;;9.82;5.13;;;14.30;99.90;;;;;;5011919;28;20213;-79
2021/12/19 09:42:13;;;;;;;8.52;4.93;;;12.90;99.90;;;;;;5011713;28;20173;-79
2021/12/19 09:44:40;;;;;;;8.98;5.88;;;12.60;99.90;;;;;;5013040;28;20190;-79
2021/12/19 09:47:17;;;;;;;8.57;4.90;;;13.10;99.90;;;;;;5012062;28;20166;-80
2021/12/19 09:49:43;;;;;;;10.05;5.28;;;13.20;99.90;;;;;;5011751;28;20294;-80
2021/12/19 09:52:09;;;;;;;11.18;5.60;;;12.60;99.90;;;;;;4995130;28;20193;-80
2021/12/19 09:54:39;;;;;;;7.18;5.30;;;12.30;99.90;;;;;;5011405;28;20258;-79
2021/12/19 09:57:05;;;;;;;8.07;5.28;;;11.60;99.90;;;;;;5017716;28;20183;-79
2021/12/19 09:59:32;;;;;;;8.40;5.55;;;11.90;99.90;;;;;;5031936;28;20226;-79
2021/12/19 10:01:58;;;;;;;9.25;5.55;;;12.30;99.90;;;;;;5014391;28;20182;-79
2021/12/19 10:04:40;;;;;;;9.07;5.57;;;12.00;99.90;;;;;;5024786;28;20194;-79
2021/12/19 10:07:21;;;;;;;11.43;5.30;;;12.30;99.90;;;;;;5031388;28;20224;-79
2021/12/19 10:10:03;;;;;;;10.65;5.47;;;12.70;99.90;;;;;;5014185;28;20257;-80
2021/12/19 10:15:05;;;;;;;11.70;7.55;;;13.70;99.90;;;;;;5024006;28;20295;-79
2021/12/19 10:17:32;;;;;;;20.98;8.73;;;13.40;99.90;;;;;;5014213;28;20199;-79
2021/12/19 10:19:59;;;;;;;16.08;8.27;;;13.10;99.90;;;;;;5013599;28;20177;-78
2021/12/19 10:22:46;;;;;;;17.55;8.85;;;13.00;99.90;;;;;;5015356;28;20224;-78
2021/12/19 10:25:22;;;;;;;14.85;8.82;;;13.70;99.90;;;;;;5019726;28;20178;-78
2021/12/19 10:27:52;;;;;;;15.52;8.93;;;13.90;99.90;;;;;;5020955;28;20201;-78
2021/12/19 10:30:33;;;;;;;12.70;8.30;;;12.50;99.90;;;;;;5028372;28;20161;-79
2021/12/19 10:33:04;;;;;;;19.92;7.85;;;13.00;99.90;;;;;;5027995;28;20161;-78
2021/12/19 10:35:39;;;;;;;15.25;8.13;;;13.00;99.90;;;;;;5028190;28;20174;-77
2021/12/19 10:38:18;;;;;;;20.63;8.23;;;12.90;99.90;;;;;;5009831;28;20205;-77
2021/12/19 10:40:54;;;;;;;15.52;8.07;;;13.80;99.90;;;;;;5029022;28;20158;-78
2021/12/19 10:43:24;;;;;;;13.77;10.18;;;14.30;99.90;;;;;;5030207;28;20166;-77
2021/12/19 10:45:55;;;;;;;16.25;8.77;;;13.80;99.90;;;;;;5012462;28;20186;-77
2021/12/19 10:48:21;;;;;;;12.98;8.27;;;13.90;99.90;;;;;;5030315;28;20312;-85
2021/12/19 10:50:59;;;;;;;15.70;8.63;;;14.70;99.90;;;;;;5031223;28;20158;-84
2021/12/19 10:53:32;;;;;;;19.52;7.97;;;13.40;99.90;;;;;;5031607;28;20172;-85
2021/12/19 10:56:00;;;;;;;17.42;8.98;;;13.50;99.90;;;;;;5012362;28;20170;-75
2021/12/19 10:58:42;;;;;;;14.48;9.35;;;13.80;99.90;;;;;;5029100;28;20228;-77
2021/12/19 11:01:35;;;;;;;12.82;7.88;;;14.50;99.90;;;;;;5015250;28;20166;-78
2021/12/19 11:04:16;;;;;;;13.18;7.88;;;14.50;99.90;;;;;;5029317;28;20162;-77
2021/12/19 11:06:44;;;;;;;10.73;7.35;;;14.00;99.90;;;;;;5029113;28;20170;-76
2021/12/19 11:09:20;;;;;;;14.82;8.48;;;14.00;99.90;;;;;;5025299;28;20248;-76
2021/12/19 11:12:10;;;;;;;23.67;8.50;;;13.50;99.90;;;;;;5029197;28;20154;-76
2021/12/19 11:14:45;;;;;;;16.23;7.05;;;13.10;99.90;;;;;;5029483;28;20154;-76
2021/12/19 11:17:18;;;;;;;12.27;6.60;;;12.90;99.90;;;;;;5029507;28;20172;-75
2021/12/19 11:19:45;;;;;;;12.98;7.05;;;12.90;99.90;;;;;;5012469;28;20205;-76
2021/12/19 11:22:13;;;;;;;18.33;7.85;;;12.30;99.90;;;;;;5029278;28;20224;-78
2021/12/19 11:24:39;;;;;;;12.02;6.55;;;13.10;99.90;;;;;;5029240;28;20164;-78
2021/12/19 11:27:08;;;;;;;7.93;5.95;;;12.70;99.90;;;;;;5018048;28;20179;-78
2021/12/19 11:29:34;;;;;;;9.65;5.85;;;13.10;99.90;;;;;;5017273;28;20217;-77
2021/12/19 11:32:04;;;;;;;13.88;7.28;;;13.00;99.90;;;;;;5026556;28;20170;-77
2021/12/19 11:34:58;;;;;;;11.75;6.50;;;13.50;99.90;;;;;;5016954;28;20170;-77
2021/12/19 11:37:35;;;;;;;13.18;5.65;;;14.50;99.90;;;;;;5017335;28;20220;-77
2021/12/19 11:40:03;;;;;;;8.23;5.60;;;14.30;99.90;;;;;;5023265;28;20201;-77
2021/12/19 11:42:35;;;;;;;9.48;4.97;;;14.20;99.90;;;;;;5029087;28;20249;-78
2021/12/19 11:47:52;;;;;;;10.70;5.65;;;14.30;99.90;;;;;;5020305;28;20178;-76
2021/12/19 11:50:26;;;;;;;6.13;4.57;;;14.40;99.90;;;;;;5021123;28;20190;-74
2021/12/19 11:53:12;;;;;;;8.98;5.25;;;14.50;99.90;;;;;;5025151;28;20216;-76
2021/12/19 11:55:41;;;;;;;8.95;5.00;;;14.90;99.90;;;;;;4999201;28;20201;-78
2021/12/19 11:58:12;;;;;;;6.22;4.47;;;15.30;99.90;;;;;;5028491;28;20195;-75
2021/12/19 12:00:54;;;;;;;8.48;5.07;;;15.60;99.90;;;;;;5027989;28;20256;-76
2021/12/19 12:03:25;;;;;;;7.75;4.95;;;15.50;99.90;;;;;;5028881;28;20162;-75
2021/12/19 12:06:12;;;;;;;6.18;4.50;;;15.00;99.90;;;;;;5034956;28;20201;-76
2021/12/19 12:08:39;;;;;;;9.20;6.25;;;15.20;99.90;;;;;;5048494;28;20197;-76
2021/12/19 12:11:04;;;;;;;14.98;6.32;;;16.10;99.90;;;;;;5048504;28;20185;-76
2021/12/19 12:13:37;;;;;;;10.05;6.88;;;15.50;99.90;;;;;;5048406;28;20161;-76
2021/12/19 12:16:25;;;;;;;8.13;5.95;;;15.40;99.90;;;;;;5048337;28;20168;-75
2021/12/19 12:19:03;;;;;;;17.88;7.00;;;14.80;99.90;;;;;;5048496;28;20184;-75
2021/12/19 12:21:42;;;;;;;8.48;5.43;;;15.20;99.90;;;;;;5048628;28;20256;-75
2021/12/19 12:24:18;;;;;;;13.60;6.95;;;15.50;99.90;;;;;;5047263;28;20227;-76
2021/12/19 12:26:49;;;;;;;12.35;6.32;;;14.60;99.90;;;;;;5042790;28;20173;-76
2021/12/19 12:29:16;;;;;;;18.25;6.82;;;13.60;99.90;;;;;;5033674;28;20602;-75
2021/12/19 12:31:43;;;;;;;14.25;6.85;;;13.20;99.90;;;;;;5036267;28;20309;-75
2021/12/19 12:34:12;;;;;;;19.20;6.95;;;12.30;99.90;;;;;;5032315;28;20166;-75
2021/12/19 12:36:39;;;;;;;16.92;8.60;;;11.90;99.90;;;;;;5046177;28;20208;-75
2021/12/19 12:39:10;;;;;;;11.65;6.68;;;11.50;99.90;;;;;;5044447;28;20180;-75
2021/12/19 12:44:17;;;;;;;14.70;6.70;;;11.00;99.90;;;;;;5028802;28;20154;-75
2021/12/19 12:46:44;;;;;;;21.20;8.70;;;10.80;99.90;;;;;;5028417;28;20181;-75
2021/12/19 12:49:17;;;;;;;29.15;7.82;;;10.60;99.90;;;;;;5027144;28;20200;-75
2021/12/19 12:51:47;;;;;;;12.43;6.40;;;10.70;99.90;;;;;;5027544;28;20194;-75
2021/12/19 12:54:14;;;;;;;14.75;6.05;;;10.50;99.90;;;;;;5027891;28;20189;-75
2021/12/19 12:56:48;;;;;;;11.27;6.60;;;10.50;99.90;;;;;;5028141;28;20202;-75
2021/12/19 12:59:18;;;;;;;20.83;7.20;;;10.40;99.90;;;;;;5035172;28;20252;-75
2021/12/19 13:02:06;;;;;;;10.70;6.50;;;10.50;99.90;;;;;;5049088;28;20197;-74
2021/12/19 13:04:32;;;;;;;12.13;5.40;;;10.40;99.90;;;;;;5051611;28;20188;-74
2021/12/19 13:07:04;;;;;;;15.23;6.15;;;10.30;99.90;;;;;;5051636;28;20170;-73
2021/12/19 13:09:36;;;;;;;13.15;6.13;;;10.20;99.90;;;;;;5051286;28;20189;-74
2021/12/19 13:12:11;;;;;;;14.07;6.63;;;10.20;99.90;;;;;;5051547;28;20199;-74
2021/12/19 13:14:49;;;;;;;15.02;8.02;;;10.00;99.90;;;;;;5051707;28;20149;-75
2021/12/19 13:17:40;;;;;;;20.77;7.00;;;9.90;99.90;;;;;;5033557;28;20241;-74
2021/12/19 13:20:16;;;;;;;12.48;6.43;;;9.70;99.90;;;;;;5051266;28;20161;-74
2021/12/19 13:22:50;;;;;;;9.65;6.38;;;9.80;99.90;;;;;;5051562;28;20165;-76
2021/12/19 13:25:18;;;;;;;12.38;5.72;;;10.00;99.90;;;;;;5051520;28;20240;-75
2021/12/19 13:27:53;;;;;;;11.63;7.38;;;9.80;99.90;;;;;;5042133;28;20193;-74
2021/12/19 13:30:23;;;;;;;17.35;7.30;;;9.80;99.90;;;;;;5041179;28;20165;-75
2021/12/19 13:33:07;;;;;;;11.55;6.72;;;9.60;99.90;;;;;;5040627;28;20641;-73
2021/12/19 13:35:37;;;;;;;14.07;6.10;;;9.50;99.90;;;;;;5040749;28;20190;-72
2021/12/19 13:38:02;;;;;;;11.77;6.70;;;9.60;99.90;;;;;;5030157;28;20173;-73
2021/12/19 13:40:55;;;;;;;9.15;5.75;;;9.60;99.90;;;;;;5046165;28;20244;-74
2021/12/19 13:43:23;;;;;;;11.38;5.70;;;9.60;99.90;;;;;;5041827;28;20170;-74
2021/12/19 13:45:59;;;;;;;10.65;5.65;;;9.40;99.90;;;;;;5040356;28;20216;-74
2021/12/19 13:48:40;;;;;;;12.43;6.65;;;9.50;99.90;;;;;;5038840;28;20271;-75
2021/12/19 13:51:12;;;;;;;12.10;6.10;;;9.40;99.90;;;;;;5039713;28;20162;-74
2021/12/19 13:53:44;;;;;;;18.13;7.03;;;9.30;99.90;;;;;;5039932;28;20162;-74
2021/12/19 13:56:18;;;;;;;11.88;6.30;;;9.30;99.90;;;;;;5040263;28;20217;-74
2021/12/19 13:58:49;;;;;;;12.50;6.60;;;9.30;99.90;;;;;;5039224;28;20213;-75
2021/12/19 14:01:27;;;;;;;13.07;7.85;;;9.40;99.90;;;;;;5038651;28;20177;-73
2021/12/19 14:03:59;;;;;;;15.18;8.52;;;9.20;99.90;;;;;;5043415;28;20225;-73